WMKK/KUL METAR and TAF weather

Enter ICAO airport designator
Station Type Date Time Source
WMKK METAR 2020/06/05 08:00 UTC NOAA

WMKK 050800Z VRB03KT 9999 FEW017CB 31/25 Q1009 NOSIG


Station Type Date Time Source
WMKK Decoded METAR 2020/06/05 08:00 UTC NOAA

Sepang/KL International Airport, Malaysia (WMKK) 02-44N 101-42E 22M
Jun 05, 2020 - 04:00 AM EDT / 2020.06.05 0800 UTC
Wind: Variable at 3 MPH (3 KT):0
Visibility: greater than 7 mile(s):0
Sky conditions: mostly clear
Weather: Cumulonimbus clouds observed
Temperature: 87 F (31 C)
Heat index: 97.5 F (36.4 C):1
Dew Point: 77 F (25 C)
Relative Humidity: 70%
Pressure (altimeter): 29.80 in. Hg (1009 hPa)
ob: WMKK 050800Z VRB03KT 9999 FEW017CB 31/25 Q1009 NOSIG
cycle: 8

Station Type Date Time Source
WMKK TAF 2020/06/05 06:09 UTC NOAA

TAF WMKK 050500Z 0506/0612 29006KT 9999 FEW017CB
TEMPO 0506/0509 4000 TSRA FEW008 FEW016CB SCT018
TEMPO 0518/0522 3000 TSRA FEW006 FEW016CB SCT024

Example: see airport list